createdAt,value
2023-04-15T00:00:03.761Z,223.26
2023-04-15T00:01:03.754Z,223.26
2023-04-15T00:02:03.879Z,223.72
2023-04-15T00:03:03.943Z,223.57
2023-04-15T00:04:03.827Z,223.26
2023-04-15T00:05:03.701Z,224.18
2023-04-15T00:06:03.703Z,224.18
2023-04-15T00:07:03.708Z,224.18
2023-04-15T00:08:03.750Z,223.87
2023-04-15T00:09:03.792Z,223.57
2023-04-15T00:10:03.814Z,224.02
2023-04-15T00:11:03.732Z,223.72
2023-04-15T00:12:03.642Z,225.10
2023-04-15T00:13:03.631Z,225.72
2023-04-15T00:15:21.857Z,261.52
2023-04-15T00:16:30.525Z,249.01
2023-04-15T00:17:30.612Z,243.83
2023-04-15T00:18:31.944Z,237.82
2023-04-15T00:19:29.685Z,236.97
2023-04-15T00:22:06.232Z,269.02
2023-04-15T00:23:16.894Z,256.21
2023-04-15T00:24:14.131Z,248.26
2023-04-15T00:25:16.791Z,247.33
2023-04-15T00:26:05.707Z,242.04
2023-04-15T00:27:14.561Z,240.44
2023-04-15T00:28:05.797Z,237.82
2023-04-15T00:29:13.183Z,236.11
2023-04-15T00:30:14.707Z,235.77
2023-04-15T00:31:16.948Z,234.43
2023-04-15T00:32:06.032Z,232.76
2023-04-15T00:33:15.046Z,231.94
2023-04-15T00:34:14.630Z,232.43
2023-04-15T00:36:23.368Z,267.71
2023-04-15T00:37:23.368Z,255.21
2023-04-15T00:38:23.060Z,247.70
2023-04-15T00:39:23.032Z,244.20
2023-04-15T00:40:23.058Z,241.32
2023-04-15T00:41:23.074Z,239.39
2023-04-15T00:42:22.979Z,237.14
2023-04-15T00:43:22.997Z,235.44
2023-04-15T00:44:23.001Z,234.26
2023-04-15T00:45:22.924Z,233.59
2023-04-15T00:46:23.050Z,232.27
2023-04-15T00:47:23.083Z,231.78
2023-04-15T00:48:22.881Z,231.29
2023-04-15T00:49:22.872Z,230.31
2023-04-15T00:50:22.859Z,229.67
2023-04-15T00:51:22.907Z,229.19
2023-04-15T00:52:22.821Z,228.07
2023-04-15T00:53:22.862Z,227.28
2023-04-15T00:54:22.824Z,226.65
2023-04-15T00:55:22.849Z,228.07
2023-04-15T00:56:22.799Z,225.72
2023-04-15T00:57:22.784Z,226.50
2023-04-15T00:58:22.759Z,225.87
2023-04-15T00:59:22.765Z,226.03
2023-04-15T01:00:22.735Z,225.41
2023-04-15T01:01:22.741Z,224.94
2023-04-15T01:02:22.824Z,223.87
2023-04-15T01:03:22.798Z,224.79
2023-04-15T01:04:22.895Z,225.72
2023-04-15T01:05:22.721Z,222.35
2023-04-15T01:06:22.731Z,223.26
2023-04-15T01:07:22.663Z,223.26
2023-04-15T01:08:22.666Z,223.11
2023-04-15T01:09:22.641Z,222.96
2023-04-15T01:10:22.659Z,223.57
2023-04-15T01:11:22.681Z,222.50
2023-04-15T01:12:22.636Z,223.41
2023-04-15T01:13:22.604Z,223.26
2023-04-15T01:14:22.588Z,222.81
2023-04-15T01:15:22.586Z,222.35
2023-04-15T01:16:22.655Z,222.96
2023-04-15T01:17:22.615Z,222.35
2023-04-15T01:18:22.586Z,221.45
2023-04-15T01:19:22.523Z,222.05
2023-04-15T01:20:22.573Z,222.50
2023-04-15T01:21:22.532Z,220.56
2023-04-15T01:22:22.507Z,220.71
2023-04-15T01:23:22.511Z,219.09
2023-04-15T01:24:22.574Z,220.41
2023-04-15T01:25:22.505Z,219.23
2023-04-15T01:26:22.503Z,219.23
2023-04-15T01:27:22.478Z,219.53
2023-04-15T01:28:22.435Z,219.67
2023-04-15T01:29:22.441Z,221.45
2023-04-15T01:30:22.527Z,219.23
2023-04-15T01:31:22.521Z,217.63
2023-04-15T01:32:22.445Z,217.78
2023-04-15T01:33:22.381Z,218.36
2023-04-15T01:34:22.460Z,218.21
2023-04-15T01:35:22.353Z,218.21
2023-04-15T01:36:22.358Z,217.92
2023-04-15T01:37:22.374Z,217.06
2023-04-15T01:38:22.420Z,215.91
2023-04-15T01:39:22.351Z,216.77
2023-04-15T01:40:22.354Z,215.35
2023-04-15T01:41:22.352Z,216.63
2023-04-15T01:42:22.342Z,215.63
2023-04-15T01:43:22.290Z,215.21
2023-04-15T01:44:22.252Z,215.07
2023-04-15T01:45:22.290Z,216.34
2023-04-15T01:46:22.325Z,216.20
2023-04-15T01:47:22.286Z,215.77
2023-04-15T01:48:22.226Z,215.77
2023-04-15T01:49:22.207Z,215.77
2023-04-15T01:50:22.266Z,214.22
2023-04-15T01:51:22.277Z,214.93
2023-04-15T01:52:22.177Z,213.53
2023-04-15T01:53:22.223Z,214.64
2023-04-15T01:54:22.143Z,215.77
2023-04-15T01:55:22.159Z,215.91
2023-04-15T01:56:22.194Z,217.20
2023-04-15T01:57:22.142Z,215.77
2023-04-15T01:58:22.153Z,216.63
2023-04-15T01:59:22.111Z,216.77
2023-04-15T02:00:22.222Z,218.50
2023-04-15T02:01:22.107Z,216.34
2023-04-15T02:02:22.147Z,216.20
2023-04-15T02:03:22.210Z,216.49
2023-04-15T02:04:22.064Z,214.78
2023-04-15T02:05:22.060Z,216.91
2023-04-15T02:06:22.026Z,216.20
2023-04-15T02:07:22.013Z,215.91
2023-04-15T02:08:22.114Z,217.35
2023-04-15T02:09:21.993Z,217.78
2023-04-15T02:10:22.009Z,215.91
2023-04-15T02:11:21.976Z,216.34
2023-04-15T02:12:21.956Z,216.77
2023-04-15T02:13:21.998Z,219.09
2023-04-15T02:14:21.983Z,216.49
2023-04-15T02:15:21.981Z,218.21
2023-04-15T02:16:21.962Z,218.79
2023-04-15T02:17:21.975Z,218.50
2023-04-15T02:18:21.918Z,217.92
2023-04-15T02:19:21.871Z,219.97
2023-04-15T02:20:21.934Z,218.50
2023-04-15T02:21:21.863Z,218.36
2023-04-15T02:22:21.839Z,216.20
2023-04-15T02:23:21.868Z,221.30
2023-04-15T02:24:21.865Z,219.67
2023-04-15T02:25:21.893Z,219.23
2023-04-15T02:26:21.845Z,218.36
2023-04-15T02:27:21.803Z,220.56
2023-04-15T02:28:21.982Z,220.26
2023-04-15T02:29:21.814Z,217.35
2023-04-15T02:30:21.763Z,217.63
2023-04-15T02:31:21.875Z,220.26
2023-04-15T02:32:21.776Z,216.63
2023-04-15T02:33:21.816Z,219.67
2023-04-15T02:34:21.793Z,218.36
2023-04-15T02:35:21.720Z,219.23
2023-04-15T02:36:21.710Z,218.21
2023-04-15T02:37:21.754Z,215.77
2023-04-15T02:38:21.702Z,216.06
2023-04-15T02:39:21.682Z,218.36
2023-04-15T02:40:21.715Z,216.49
2023-04-15T02:41:21.645Z,218.79
2023-04-15T02:42:21.707Z,215.91
2023-04-15T02:43:21.682Z,217.78
2023-04-15T02:44:21.635Z,218.65
2023-04-15T02:45:21.594Z,216.49
2023-04-15T02:46:21.614Z,217.78
2023-04-15T02:47:21.638Z,219.38
2023-04-15T02:48:22.108Z,217.20
2023-04-15T02:49:21.613Z,218.21
2023-04-15T02:50:21.550Z,216.20
2023-04-15T02:51:21.572Z,218.65
2023-04-15T02:52:21.549Z,218.50
2023-04-15T02:53:21.492Z,219.67
2023-04-15T02:54:21.498Z,218.07
2023-04-15T02:55:21.558Z,215.77
2023-04-15T02:56:21.472Z,218.21
2023-04-15T02:57:21.504Z,216.20
2023-04-15T02:58:21.454Z,217.49
2023-04-15T02:59:21.451Z,217.63
2023-04-15T03:00:21.525Z,216.77
2023-04-15T03:01:21.492Z,216.91
2023-04-15T03:02:21.486Z,218.50
2023-04-15T03:03:21.544Z,216.63
2023-04-15T03:04:21.415Z,216.06
2023-04-15T03:05:21.400Z,219.82
2023-04-15T03:06:21.365Z,216.77
2023-04-15T03:07:21.414Z,217.35
2023-04-15T03:08:21.353Z,217.78
2023-04-15T03:09:21.344Z,215.21
2023-04-15T03:10:21.420Z,217.06
2023-04-15T03:11:21.345Z,220.56
2023-04-15T03:12:21.300Z,217.35
2023-04-15T03:13:21.290Z,217.92
2023-04-15T03:14:21.270Z,218.50
2023-04-15T03:15:21.355Z,217.06
2023-04-15T03:16:21.319Z,217.06
2023-04-15T03:17:21.316Z,219.23
2023-04-15T03:18:21.296Z,219.09
2023-04-15T03:19:21.237Z,215.49
2023-04-15T03:20:21.299Z,219.82
2023-04-15T03:21:21.281Z,216.06
2023-04-15T03:22:21.225Z,217.35
2023-04-15T03:23:21.260Z,219.23
2023-04-15T03:24:21.200Z,218.21
2023-04-15T03:25:21.164Z,217.06
2023-04-15T03:26:21.194Z,216.06
2023-04-15T03:27:21.155Z,219.53
2023-04-15T03:28:21.115Z,218.50
2023-04-15T03:29:21.147Z,219.97
2023-04-15T03:30:21.109Z,218.21
2023-04-15T03:31:21.146Z,219.67
2023-04-15T03:32:21.163Z,217.49
2023-04-15T03:33:21.082Z,220.26
2023-04-15T03:34:21.114Z,216.49
2023-04-15T03:35:21.044Z,219.09
2023-04-15T03:36:21.145Z,218.21
2023-04-15T03:37:21.057Z,219.53
2023-04-15T03:38:21.041Z,216.63
2023-04-15T03:39:21.088Z,217.78
2023-04-15T03:40:21.028Z,217.35
2023-04-15T03:41:21.008Z,216.34
2023-04-15T03:42:21.008Z,219.67
2023-04-15T03:43:21.070Z,218.21
2023-04-15T03:44:20.953Z,217.20
2023-04-15T03:45:21.001Z,215.21
2023-04-15T03:46:20.976Z,215.91
2023-04-15T03:47:21.005Z,217.78
2023-04-15T03:48:21.019Z,214.22
2023-04-15T03:49:20.917Z,215.07
2023-04-15T03:50:20.927Z,217.35
2023-04-15T03:51:20.898Z,214.36
2023-04-15T03:52:20.919Z,217.49
2023-04-15T03:53:20.873Z,213.39
2023-04-15T03:54:20.892Z,217.63
2023-04-15T03:55:20.852Z,216.77
2023-04-15T03:56:20.810Z,214.64
2023-04-15T03:57:20.862Z,213.66
2023-04-15T03:58:20.845Z,215.91
2023-04-15T03:59:20.783Z,216.49
2023-04-15T04:00:20.816Z,215.35
2023-04-15T04:01:20.755Z,214.78
2023-04-15T04:02:20.962Z,216.49
2023-04-15T04:03:21.035Z,212.15
2023-04-15T04:04:20.805Z,212.01
2023-04-15T04:05:20.711Z,217.49
2023-04-15T04:06:20.760Z,212.28
2023-04-15T04:07:20.701Z,212.70
2023-04-15T04:08:20.733Z,215.91
2023-04-15T04:09:20.757Z,214.22
2023-04-15T04:10:20.671Z,212.70
2023-04-15T04:11:20.665Z,215.35
2023-04-15T04:12:20.734Z,214.93
2023-04-15T04:13:20.637Z,216.77
2023-04-15T04:14:20.602Z,210.92
2023-04-15T04:15:20.624Z,214.64
2023-04-15T04:16:20.725Z,211.74
2023-04-15T04:17:20.643Z,212.83
2023-04-15T04:18:20.589Z,210.78
2023-04-15T04:19:20.614Z,213.94
2023-04-15T04:20:20.561Z,210.51
2023-04-15T04:21:20.560Z,211.19
2023-04-15T04:22:20.599Z,211.46
2023-04-15T04:23:20.551Z,212.97
2023-04-15T04:24:20.516Z,214.50
2023-04-15T04:25:20.577Z,213.80
2023-04-15T04:26:20.532Z,210.51
2023-04-15T04:27:20.467Z,211.74
2023-04-15T04:28:20.494Z,213.11
2023-04-15T04:29:20.468Z,209.71
2023-04-15T04:30:20.494Z,212.70
2023-04-15T04:31:20.499Z,209.71
2023-04-15T04:32:20.515Z,210.11
2023-04-15T04:33:20.484Z,209.97
2023-04-15T04:34:20.401Z,209.44
2023-04-15T04:35:20.383Z,211.19
2023-04-15T04:36:20.431Z,213.25
2023-04-15T04:37:20.363Z,209.57
2023-04-15T04:38:20.410Z,209.71
2023-04-15T04:39:28.236Z,209.17
2023-04-15T04:40:20.965Z,210.38
2023-04-15T04:41:20.601Z,208.77
2023-04-15T04:43:06.893Z,207.71
2023-04-15T04:48:12.550Z,283.92
2023-04-15T04:49:09.560Z,262.99
2023-04-15T04:50:08.799Z,247.89
2023-04-15T04:53:31.191Z,289.18
2023-04-15T04:54:31.240Z,265.97
2023-04-15T04:55:31.341Z,250.15
2023-04-15T04:56:30.908Z,242.39
2023-04-15T04:57:31.250Z,237.14
2023-04-15T04:58:30.947Z,234.43
2023-04-15T04:59:30.805Z,228.55
2023-04-15T05:00:30.837Z,226.65
2023-04-15T05:01:30.954Z,222.20
2023-04-15T05:02:30.926Z,221.45
2023-04-15T05:03:30.809Z,218.65
2023-04-15T05:04:30.778Z,216.77
2023-04-15T05:05:30.667Z,214.22
2023-04-15T05:06:30.736Z,214.08
2023-04-15T05:07:30.774Z,212.56
2023-04-15T05:08:30.725Z,213.53
2023-04-15T05:09:30.613Z,210.92
2023-04-15T05:10:30.702Z,209.57
2023-04-15T05:11:30.643Z,209.97
2023-04-15T05:12:30.620Z,209.84
2023-04-15T05:13:30.666Z,209.44
2023-04-15T05:14:30.754Z,208.77
2023-04-15T05:19:18.240Z,261.10
2023-04-15T05:22:27.989Z,268.80
2023-04-15T05:23:26.242Z,247.33
2023-04-15T05:24:26.076Z,236.97
2023-04-15T05:25:26.027Z,231.45
2023-04-15T05:26:26.237Z,226.34
2023-04-15T05:27:26.070Z,222.96
2023-04-15T05:29:54.530Z,255.61
2023-04-15T05:30:54.303Z,239.74
2023-04-15T05:31:51.659Z,231.78
2023-04-15T05:32:51.911Z,227.60
2023-04-15T05:33:51.488Z,220.86
2023-04-15T05:34:51.344Z,215.35
2023-04-15T05:35:51.355Z,214.36
2023-04-15T05:36:56.614Z,210.38
2023-04-15T05:39:14.631Z,245.11
2023-04-15T05:40:15.175Z,228.39
2023-04-15T05:41:14.724Z,219.38
2023-04-15T05:42:15.157Z,215.91
2023-04-15T05:43:14.552Z,213.11
2023-04-15T05:44:15.035Z,209.30
2023-04-15T05:45:14.884Z,206.02
2023-04-15T05:46:14.570Z,204.73
2023-04-15T05:47:14.879Z,204.99
2023-04-15T05:48:14.727Z,202.21
2023-04-15T05:49:14.607Z,202.09
2023-04-15T05:50:14.663Z,200.97
2023-04-15T05:51:14.345Z,199.75
2023-04-15T05:52:14.336Z,201.96
2023-04-15T05:53:14.427Z,197.70
2023-04-15T05:54:14.354Z,198.30
2023-04-15T05:55:15.247Z,197.46
2023-04-15T05:56:14.550Z,197.23
2023-04-15T05:57:14.985Z,198.06
2023-04-15T05:58:15.258Z,195.12
2023-04-15T05:59:16.128Z,195.58
2023-04-15T06:00:15.457Z,197.35
2023-04-15T06:01:15.246Z,194.88
2023-04-15T06:02:16.087Z,197.11
2023-04-15T06:03:14.458Z,196.75
2023-04-15T06:04:14.784Z,195.81
2023-04-15T06:05:15.377Z,194.08
2023-04-15T06:06:14.720Z,196.16
2023-04-15T06:07:14.441Z,195.46
2023-04-15T06:08:14.570Z,192.82
2023-04-15T06:09:14.913Z,193.28
2023-04-15T06:10:14.373Z,192.37
2023-04-15T06:11:13.966Z,193.05
2023-04-15T06:12:13.982Z,191.47
2023-04-15T06:13:14.723Z,191.14
2023-04-15T06:14:14.441Z,192.26
2023-04-15T06:15:13.835Z,190.25
2023-04-15T06:16:13.888Z,191.70
2023-04-15T06:17:13.800Z,192.37
2023-04-15T06:18:13.777Z,192.60
2023-04-15T06:19:13.808Z,188.72
2023-04-15T06:20:13.750Z,191.47
2023-04-15T06:21:13.755Z,191.36
2023-04-15T06:22:13.719Z,192.37
2023-04-15T06:23:14.106Z,189.15
2023-04-15T06:24:14.160Z,189.59
2023-04-15T06:25:13.792Z,188.72
2023-04-15T06:26:13.735Z,188.39
2023-04-15T06:27:13.695Z,188.50
2023-04-15T06:28:13.762Z,187.43
2023-04-15T06:29:13.694Z,187.53
2023-04-15T06:30:13.725Z,189.04
2023-04-15T06:31:13.687Z,187.21
2023-04-15T06:32:13.758Z,189.48
2023-04-15T06:33:13.619Z,190.03
2023-04-15T06:34:13.710Z,189.48
2023-04-15T06:35:13.644Z,188.29
2023-04-15T06:36:13.660Z,187.53
2023-04-15T06:37:13.602Z,185.52
2023-04-15T06:38:13.579Z,185.83
2023-04-15T06:39:13.591Z,185.10
2023-04-15T06:40:13.544Z,185.42
2023-04-15T06:41:13.599Z,184.60
2023-04-15T06:42:13.539Z,185.62
2023-04-15T06:43:13.549Z,186.87
2023-04-15T06:44:14.835Z,185.62
2023-04-15T06:45:13.481Z,185.10
2023-04-15T06:46:13.600Z,186.24
2023-04-15T06:47:13.504Z,184.39
2023-04-15T06:48:13.513Z,184.89
2023-04-15T06:49:13.534Z,185.10
2023-04-15T06:50:13.491Z,183.99
2023-04-15T06:51:13.433Z,184.19
2023-04-15T06:52:13.423Z,185.21
2023-04-15T06:53:13.442Z,186.04
2023-04-15T06:54:13.586Z,186.24
2023-04-15T06:55:14.310Z,186.04
2023-04-15T06:56:13.400Z,184.39
2023-04-15T06:57:13.374Z,183.18
2023-04-15T06:58:13.389Z,183.78
2023-04-15T06:59:13.428Z,185.10
2023-04-15T07:00:13.372Z,186.87
2023-04-15T07:01:13.457Z,186.24
2023-04-15T07:02:13.322Z,186.24
2023-04-15T07:03:13.737Z,185.21
2023-04-15T07:04:13.419Z,184.39
2023-04-15T07:05:13.329Z,184.19
2023-04-15T07:06:13.333Z,184.19
2023-04-15T07:07:13.307Z,184.80
2023-04-15T07:08:13.264Z,183.58
2023-04-15T07:09:13.248Z,184.19
2023-04-15T07:10:13.661Z,182.38
2023-04-15T07:11:13.234Z,181.78
2023-04-15T07:12:13.356Z,185.42
2023-04-15T07:13:13.210Z,184.39
2023-04-15T07:14:13.207Z,180.21
2023-04-15T07:15:13.209Z,185.01
2023-04-15T07:16:13.517Z,183.58
2023-04-15T07:17:13.442Z,182.98
2023-04-15T07:18:13.181Z,179.63
2023-04-15T07:19:13.255Z,182.38
2023-04-15T07:20:13.490Z,180.60
2023-04-15T07:21:17.688Z,180.02
2023-04-15T07:22:21.321Z,180.21
2023-04-15T07:23:13.297Z,178.48
2023-04-15T07:24:13.172Z,182.18
2023-04-15T07:25:13.545Z,182.18
2023-04-15T07:26:22.452Z,182.38
2023-04-15T07:28:46.121Z,212.83
2023-04-15T07:29:43.352Z,200.85
2023-04-15T07:30:43.472Z,193.73
2023-04-15T07:32:59.869Z,220.56
2023-04-15T07:34:11.432Z,206.15
2023-04-15T07:36:17.678Z,229.51
2023-04-15T07:37:26.022Z,213.11
2023-04-15T07:38:27.303Z,207.19
2023-04-15T07:39:26.077Z,199.26
2023-04-15T07:41:36.897Z,228.23
2023-04-15T07:42:43.280Z,210.92
2023-04-15T07:43:52.392Z,206.28
2023-04-15T07:44:51.590Z,200.36
2023-04-15T07:47:05.714Z,228.87
2023-04-15T07:48:05.076Z,214.78
2023-04-15T07:49:05.172Z,203.21
2023-04-15T07:50:04.552Z,199.02
2023-04-15T07:51:04.836Z,197.11
2023-04-15T07:52:05.194Z,192.93
2023-04-15T07:53:04.890Z,191.47
2023-04-15T07:54:04.563Z,189.92
2023-04-15T07:55:04.614Z,188.29
2023-04-15T07:56:04.449Z,187.21
2023-04-15T07:57:04.523Z,184.89
2023-04-15T07:58:04.386Z,184.89
2023-04-15T07:59:04.658Z,185.01
2023-04-15T08:00:04.394Z,185.62
2023-04-15T08:01:12.142Z,180.60
2023-04-15T08:02:04.748Z,182.78
2023-04-15T08:03:04.744Z,181.38
2023-04-15T08:04:04.891Z,181.19
2023-04-15T08:05:04.696Z,178.48
2023-04-15T08:06:04.459Z,179.05
2023-04-15T08:07:04.294Z,174.01
2023-04-15T08:08:04.308Z,175.47
2023-04-15T08:09:04.510Z,175.10
2023-04-15T08:10:04.249Z,172.04
2023-04-15T08:11:04.448Z,170.45
2023-04-15T08:12:04.361Z,170.63
2023-04-15T08:13:04.321Z,167.21
2023-04-15T08:14:04.175Z,165.06
2023-04-15T08:15:04.246Z,165.39
2023-04-15T08:16:04.198Z,162.80
2023-04-15T08:17:04.188Z,163.76
2023-04-15T08:18:04.161Z,163.92
2023-04-15T08:19:04.281Z,163.76
2023-04-15T08:20:04.123Z,161.23
2023-04-15T08:21:04.178Z,162.80
2023-04-15T08:22:04.119Z,159.38
2023-04-15T08:23:04.114Z,160.61
2023-04-15T08:24:04.142Z,156.69
2023-04-15T08:25:04.120Z,156.98
2023-04-15T08:26:04.050Z,155.81
2023-04-15T08:27:04.110Z,156.54
2023-04-15T08:28:04.049Z,158.78
2023-04-15T08:29:04.308Z,154.94
2023-04-15T08:30:05.063Z,157.73
2023-04-15T08:31:04.173Z,154.51
2023-04-15T08:32:04.038Z,157.88
2023-04-15T08:33:04.062Z,157.43
2023-04-15T08:34:03.989Z,154.37
2023-04-15T08:35:03.991Z,155.09
2023-04-15T08:36:03.960Z,156.84
2023-04-15T08:37:03.924Z,152.82
2023-04-15T08:38:03.950Z,152.68
2023-04-15T08:39:04.117Z,152.96
2023-04-15T08:40:03.920Z,151.84
2023-04-15T08:41:03.899Z,150.61
2023-04-15T08:42:03.870Z,149.40
2023-04-15T08:43:03.921Z,146.25
2023-04-15T08:44:04.034Z,144.73
2023-04-15T08:45:03.942Z,147.29
2023-04-15T08:46:03.988Z,145.74
2023-04-15T08:47:03.958Z,144.23
2023-04-15T08:48:03.916Z,144.11
2023-04-15T08:49:04.219Z,142.87
2023-04-15T08:50:03.877Z,140.82
2023-04-15T08:51:04.109Z,141.30
2023-04-15T08:52:03.909Z,142.02
2023-04-15T08:53:03.836Z,142.02
2023-04-15T08:54:03.812Z,142.26
2023-04-15T08:55:04.181Z,141.06
2023-04-15T08:56:03.740Z,139.29
2023-04-15T08:57:03.873Z,139.29
2023-04-15T08:58:03.707Z,138.49
2023-04-15T08:59:03.967Z,137.91
2023-04-15T09:00:05.267Z,139.99
2023-04-15T09:01:03.712Z,139.76
2023-04-15T09:02:03.721Z,139.06
2023-04-15T09:03:03.743Z,139.53
2023-04-15T09:04:03.694Z,139.41
2023-04-15T09:05:03.811Z,139.06
2023-04-15T09:06:03.609Z,137.80
2023-04-15T09:07:04.024Z,139.18
2023-04-15T09:08:03.691Z,136.45
2023-04-15T09:09:03.809Z,138.14
2023-04-15T09:10:03.645Z,136.90
2023-04-15T09:11:03.577Z,137.01
2023-04-15T09:12:03.796Z,137.80
2023-04-15T09:13:03.601Z,138.14
2023-04-15T09:14:04.583Z,137.80
2023-04-15T09:15:19.998Z,137.46
2023-04-15T09:16:03.572Z,137.57
2023-04-15T09:17:05.182Z,138.14
2023-04-15T09:19:46.384Z,165.06
2023-04-15T09:20:46.227Z,156.10
2023-04-15T09:23:05.847Z,177.34
2023-04-15T09:23:58.796Z,163.76
2023-04-15T09:24:56.752Z,159.99
2023-04-15T09:25:56.589Z,152.68
2023-04-15T09:26:56.569Z,151.84
2023-04-15T09:27:56.523Z,149.80
2023-04-15T09:28:56.863Z,148.33
2023-04-15T09:30:00.041Z,143.86
2023-04-15T09:30:56.822Z,145.62
2023-04-15T09:31:56.501Z,144.35
2023-04-15T09:32:56.625Z,140.35
2023-04-15T09:33:56.519Z,140.35
2023-04-15T09:34:56.434Z,141.66
2023-04-15T09:35:56.509Z,138.95
2023-04-15T09:36:56.450Z,141.18
2023-04-15T09:37:56.945Z,140.47
2023-04-15T09:38:56.468Z,139.41
2023-04-15T09:39:56.381Z,139.06
2023-04-15T09:40:56.377Z,138.71
2023-04-15T09:41:56.427Z,138.37
2023-04-15T09:42:56.498Z,136.78
2023-04-15T09:43:56.375Z,134.90
2023-04-15T09:44:56.681Z,136.22
2023-04-15T09:45:56.365Z,136.34
2023-04-15T09:46:56.324Z,133.71
2023-04-15T09:47:57.088Z,135.23
2023-04-15T09:48:56.462Z,134.68
2023-04-15T09:49:56.403Z,134.90
2023-04-15T09:50:56.361Z,134.25
2023-04-15T09:52:05.048Z,133.93
2023-04-15T09:52:57.389Z,134.90
2023-04-15T09:53:56.287Z,133.29
2023-04-15T09:54:56.247Z,132.97
2023-04-15T09:55:56.245Z,132.97
2023-04-15T09:56:56.208Z,133.07
2023-04-15T09:57:56.183Z,132.34
2023-04-15T09:58:56.401Z,132.34
2023-04-15T09:59:56.262Z,132.12
2023-04-15T10:00:56.154Z,131.92
2023-04-15T10:01:56.230Z,131.19
2023-04-15T10:02:56.459Z,130.78
2023-04-15T10:03:56.196Z,130.07
2023-04-15T10:04:56.184Z,129.36
2023-04-15T10:05:56.271Z,130.17
2023-04-15T10:06:56.124Z,127.48
2023-04-15T10:08:05.075Z,128.17
2023-04-15T10:08:56.122Z,126.32
2023-04-15T10:09:56.170Z,126.23
2023-04-15T10:11:04.626Z,124.72
2023-04-15T10:11:56.145Z,123.98
2023-04-15T10:12:56.089Z,122.97
2023-04-15T10:13:56.097Z,122.70
2023-04-15T10:14:56.022Z,122.16
2023-04-15T10:15:56.382Z,121.45
2023-04-15T10:16:56.133Z,121.01
2023-04-15T10:17:56.242Z,120.66
2023-04-15T10:18:56.061Z,120.05
2023-04-15T10:19:55.968Z,119.79
2023-04-15T10:20:56.028Z,119.28
2023-04-15T10:21:55.948Z,119.62
2023-04-15T10:22:56.007Z,119.11
2023-04-15T10:23:56.017Z,119.03
2023-04-15T10:24:56.041Z,118.43
2023-04-15T10:25:56.008Z,118.18
2023-04-15T10:26:55.857Z,117.85
2023-04-15T10:27:55.873Z,117.85
2023-04-15T10:28:55.917Z,117.11
2023-04-15T10:29:55.890Z,117.11
2023-04-15T10:30:55.839Z,116.61
2023-04-15T10:31:55.868Z,116.69
2023-04-15T10:32:55.935Z,117.27
2023-04-15T10:33:55.815Z,115.72
2023-04-15T10:34:55.824Z,116.29
2023-04-15T10:35:55.894Z,115.80
2023-04-15T10:36:55.815Z,115.32
2023-04-15T10:37:55.779Z,115.40
2023-04-15T10:38:55.758Z,115.48
2023-04-15T10:40:04.265Z,115.40
2023-04-15T10:40:56.618Z,114.85
2023-04-15T10:41:55.877Z,114.77
2023-04-15T10:42:55.761Z,115.48
2023-04-15T10:43:55.720Z,113.91
2023-04-15T10:44:55.853Z,114.53
2023-04-15T10:45:55.717Z,114.61
2023-04-15T10:46:55.745Z,114.77
2023-04-15T10:47:55.730Z,114.53
2023-04-15T10:48:56.001Z,113.83
2023-04-15T10:49:55.677Z,113.99
2023-04-15T10:50:55.770Z,112.60
2023-04-15T10:51:55.745Z,112.90
2023-04-15T10:52:55.684Z,113.29
2023-04-15T10:53:55.655Z,112.75
2023-04-15T10:54:55.734Z,112.53
2023-04-15T10:55:55.598Z,112.15
2023-04-15T10:56:55.884Z,112.30
2023-04-15T10:57:55.615Z,111.62
2023-04-15T10:58:55.603Z,111.47
2023-04-15T10:59:55.670Z,110.95
2023-04-15T11:00:55.541Z,111.55
2023-04-15T11:01:55.772Z,111.25
2023-04-15T11:02:55.772Z,112.07
2023-04-15T11:03:56.098Z,111.47
2023-04-15T11:04:55.594Z,111.62
2023-04-15T11:05:55.555Z,111.77
2023-04-15T11:06:56.982Z,111.18
2023-04-15T11:07:55.481Z,110.22
2023-04-15T11:08:55.798Z,110.59
2023-04-15T11:09:55.691Z,110.15
2023-04-15T11:10:57.044Z,110.15
2023-04-15T11:11:55.668Z,109.64
2023-04-15T11:12:55.472Z,108.78
2023-04-15T11:13:55.404Z,108.78
2023-04-15T11:14:55.376Z,108.29
2023-04-15T11:15:57.315Z,106.97
2023-04-15T11:16:58.492Z,106.70
2023-04-15T11:17:57.270Z,106.43
2023-04-15T11:18:55.775Z,105.68
2023-04-15T11:19:55.515Z,105.48
2023-04-15T11:20:55.317Z,105.22
2023-04-15T11:21:55.290Z,104.23
2023-04-15T11:23:14.066Z,103.84
2023-04-15T11:23:56.295Z,103.97
2023-04-15T11:24:55.283Z,103.52
2023-04-15T11:25:55.469Z,102.82
2023-04-15T11:26:55.191Z,102.57
2023-04-15T11:27:55.246Z,102.57
2023-04-15T11:28:55.181Z,102.25
2023-04-15T11:29:55.157Z,101.26
2023-04-15T11:30:55.164Z,101.32
2023-04-15T11:31:55.165Z,101.26
2023-04-15T11:32:55.168Z,100.83
2023-04-15T11:33:55.196Z,100.47
2023-04-15T11:34:55.120Z,100.29
2023-04-15T11:35:55.134Z,99.21
2023-04-15T11:36:55.092Z,99.75
2023-04-15T11:37:55.147Z,99.27
2023-04-15T11:38:55.162Z,99.33
2023-04-15T11:39:55.068Z,99.27
2023-04-15T11:40:55.033Z,98.28
2023-04-15T11:41:55.022Z,98.68
2023-04-15T11:42:55.032Z,98.51
2023-04-15T11:43:55.003Z,97.42
2023-04-15T11:44:55.065Z,97.99
2023-04-15T11:45:55.012Z,98.05
2023-04-15T11:46:54.982Z,97.99
2023-04-15T11:47:55.360Z,97.53
2023-04-15T11:48:54.974Z,98.28
2023-04-15T11:49:54.952Z,98.33
2023-04-15T11:50:54.981Z,97.47
2023-04-15T11:51:54.917Z,98.33
2023-04-15T11:52:54.909Z,98.05
2023-04-15T11:53:54.890Z,98.33
2023-04-15T11:54:54.902Z,98.16
2023-04-15T11:55:54.877Z,97.93
2023-04-15T11:56:54.874Z,98.16
2023-04-15T11:57:54.844Z,98.16
2023-04-15T11:58:54.865Z,98.45
2023-04-15T11:59:54.924Z,98.51
2023-04-15T12:00:54.862Z,98.10
2023-04-15T12:01:54.940Z,98.45
2023-04-15T12:02:55.649Z,97.93
2023-04-15T12:03:54.903Z,98.10
2023-04-15T12:04:54.786Z,98.33
2023-04-15T12:05:54.796Z,97.87
2023-04-15T12:06:54.754Z,97.70
2023-04-15T12:07:54.794Z,97.70
2023-04-15T12:08:54.753Z,98.16
2023-04-15T12:09:54.714Z,98.05
2023-04-15T12:10:54.718Z,97.93
2023-04-15T12:11:54.774Z,97.53
2023-04-15T12:12:54.702Z,97.82
2023-04-15T12:13:54.691Z,97.47
2023-04-15T12:14:54.688Z,98.05
2023-04-15T12:15:54.704Z,97.47
2023-04-15T12:16:54.656Z,97.36
2023-04-15T12:17:54.703Z,97.19
2023-04-15T12:18:54.629Z,97.36
2023-04-15T12:19:54.629Z,97.08
2023-04-15T12:20:54.672Z,96.63
2023-04-15T12:21:54.643Z,96.51
2023-04-15T12:22:54.635Z,96.68
2023-04-15T12:23:54.641Z,96.07
2023-04-15T12:24:54.556Z,95.96
2023-04-15T12:25:54.564Z,96.35
2023-04-15T12:26:54.548Z,95.52
2023-04-15T12:27:54.499Z,95.57
2023-04-15T12:28:54.543Z,95.19
2023-04-15T12:29:54.488Z,95.74
2023-04-15T12:30:54.558Z,95.30
2023-04-15T12:31:54.469Z,95.41
2023-04-15T12:32:54.522Z,94.60
2023-04-15T12:33:54.466Z,94.12
2023-04-15T12:34:54.662Z,94.12
2023-04-15T12:35:54.783Z,94.65
2023-04-15T12:36:55.649Z,94.39
2023-04-15T12:38:03.793Z,94.07
2023-04-15T12:38:55.385Z,93.75
2023-04-15T12:39:54.516Z,94.28
2023-04-15T12:40:54.550Z,93.75
2023-04-15T12:41:54.637Z,93.80
2023-04-15T12:43:07.100Z,95.87
2023-04-15T12:43:55.071Z,95.87
2023-04-15T12:44:54.914Z,95.32
2023-04-15T12:45:54.630Z,95.65
2023-04-15T12:46:56.969Z,95.32
2023-04-15T12:47:55.447Z,94.67
2023-04-15T12:48:54.694Z,94.89
2023-04-15T12:49:54.339Z,94.78
2023-04-15T12:50:58.224Z,95.00
2023-04-15T12:51:54.675Z,94.57
2023-04-15T12:53:04.685Z,94.57
2023-04-15T13:00:31.010Z,113.21
2023-04-15T13:01:30.761Z,104.49
2023-04-15T13:02:29.796Z,99.86
2023-04-15T13:03:29.856Z,97.99
2023-04-15T13:04:29.529Z,96.01
2023-04-15T13:05:29.526Z,94.98
2023-04-15T13:06:29.503Z,94.28
2023-04-15T13:07:29.459Z,93.91